createdAt,value
2023-05-19T00:00:54.812Z,96741.38
2023-05-19T00:03:21.926Z,96739.53
2023-05-19T00:05:49.019Z,96737.22
2023-05-19T00:08:17.059Z,96739.50
2023-05-19T00:10:43.904Z,96745.66
2023-05-19T00:13:10.548Z,96734.13
2023-05-19T00:15:37.334Z,96735.25
2023-05-19T00:18:03.790Z,96738.78
2023-05-19T00:20:30.494Z,96731.41
2023-05-19T00:22:57.096Z,96731.59
2023-05-19T00:25:23.589Z,96735.88
2023-05-19T00:27:50.011Z,96724.34
2023-05-19T00:30:16.536Z,96725.59
2023-05-19T00:32:42.952Z,96723.50
2023-05-19T00:35:09.703Z,96728.41
2023-05-19T00:37:36.069Z,96721.19
2023-05-19T00:40:02.567Z,96724.72
2023-05-19T00:42:28.995Z,96719.97
2023-05-19T00:44:55.713Z,96706.19
2023-05-19T00:47:22.368Z,96708.09
2023-05-19T00:49:48.814Z,96704.41
2023-05-19T00:52:15.486Z,96704.09
2023-05-19T00:54:43.126Z,96710.72
2023-05-19T00:57:09.609Z,96706.50
2023-05-19T00:59:36.192Z,96703.63
2023-05-19T01:02:02.835Z,96702.88
2023-05-19T01:04:29.758Z,96698.34
2023-05-19T01:06:56.520Z,96696.50
2023-05-19T01:09:23.671Z,96691.03
2023-05-19T01:11:50.534Z,96696.09
2023-05-19T01:14:19.021Z,96693.84
2023-05-19T01:17:05.217Z,96690.25
2023-05-19T01:20:02.144Z,96693.47
2023-05-19T01:22:36.958Z,96694.44
2023-05-19T01:25:22.538Z,96687.53
2023-05-19T01:28:23.426Z,96693.03
2023-05-19T01:30:54.657Z,96685.13
2023-05-19T01:33:22.942Z,96698.81
2023-05-19T01:35:50.608Z,96698.00
2023-05-19T01:38:19.264Z,96702.59
2023-05-19T01:40:47.174Z,96697.78
2023-05-19T01:43:18.640Z,96701.97
2023-05-19T01:45:46.134Z,96695.03
2023-05-19T01:48:13.672Z,96700.31
2023-05-19T01:50:41.118Z,96702.69
2023-05-19T01:53:07.909Z,96697.25
2023-05-19T01:55:36.662Z,96693.19
2023-05-19T01:58:26.609Z,96696.63
2023-05-19T02:01:00.084Z,96691.53
2023-05-19T02:03:51.371Z,96695.66
2023-05-19T02:06:47.221Z,96699.25
2023-05-19T02:09:25.457Z,96698.91
2023-05-19T02:12:04.795Z,96701.00
2023-05-19T02:14:49.495Z,96699.25
2023-05-19T02:17:17.833Z,96703.50
2023-05-19T02:19:44.799Z,96703.16
2023-05-19T02:22:11.178Z,96699.69
2023-05-19T02:24:37.717Z,96700.22
2023-05-19T02:27:04.339Z,96701.44
2023-05-19T02:29:30.764Z,96698.91
2023-05-19T02:31:57.185Z,96699.47
2023-05-19T02:34:23.617Z,96699.94
2023-05-19T02:36:50.568Z,96692.69
2023-05-19T02:39:17.015Z,96690.44
2023-05-19T02:41:43.438Z,96694.63
2023-05-19T02:44:09.976Z,96686.88
2023-05-19T02:46:36.482Z,96691.22
2023-05-19T02:49:02.899Z,96683.41
2023-05-19T02:51:29.286Z,96686.19
2023-05-19T02:53:55.782Z,96685.97
2023-05-19T02:56:22.555Z,96683.53
2023-05-19T02:58:48.947Z,96683.28
2023-05-19T03:01:15.719Z,96686.00
2023-05-19T03:03:42.261Z,96682.13
2023-05-19T03:06:09.236Z,96678.00
2023-05-19T03:08:36.090Z,96686.66
2023-05-19T03:11:03.393Z,96681.72
2023-05-19T03:13:30.039Z,96685.19
2023-05-19T03:15:58.649Z,96681.69
2023-05-19T03:18:26.804Z,96677.34
2023-05-19T03:20:53.960Z,96676.09
2023-05-19T03:23:21.563Z,96675.94
2023-05-19T03:25:48.191Z,96672.41
2023-05-19T03:28:14.556Z,96669.00
2023-05-19T03:30:40.953Z,96677.09
2023-05-19T03:33:07.534Z,96669.00
2023-05-19T03:35:34.105Z,96668.53
2023-05-19T03:38:00.514Z,96682.81
2023-05-19T03:40:27.105Z,96682.50
2023-05-19T03:42:54.371Z,96678.09
2023-05-19T03:45:21.042Z,96685.38
2023-05-19T03:47:47.659Z,96683.34
2023-05-19T03:50:14.117Z,96682.81
2023-05-19T03:52:40.487Z,96680.22
2023-05-19T03:55:07.751Z,96684.50
2023-05-19T03:57:37.265Z,96680.66
2023-05-19T04:00:05.852Z,96687.53
2023-05-19T04:02:32.314Z,96690.91
2023-05-19T04:04:58.905Z,96694.22
2023-05-19T04:07:25.694Z,96697.22
2023-05-19T04:09:52.091Z,96703.28
2023-05-19T04:12:18.468Z,96703.00
2023-05-19T04:14:44.911Z,96709.06
2023-05-19T04:17:11.700Z,96703.91
2023-05-19T04:19:38.131Z,96701.66
2023-05-19T04:22:04.771Z,96707.13
2023-05-19T04:24:31.353Z,96709.78
2023-05-19T04:27:02.324Z,96711.72
2023-05-19T04:29:29.486Z,96703.31
2023-05-19T04:31:57.109Z,96703.84
2023-05-19T04:34:23.556Z,96699.81
2023-05-19T04:36:52.404Z,96706.34
2023-05-19T04:39:19.908Z,96710.03
2023-05-19T04:41:46.332Z,96710.66
2023-05-19T04:44:13.657Z,96712.47
2023-05-19T04:46:40.254Z,96710.47
2023-05-19T04:49:07.702Z,96713.88
2023-05-19T04:51:35.701Z,96714.56
2023-05-19T04:54:02.201Z,96714.19
2023-05-19T04:56:28.825Z,96717.19
2023-05-19T04:58:55.317Z,96716.53
2023-05-19T05:01:25.873Z,96719.28
2023-05-19T05:03:55.744Z,96721.78
2023-05-19T05:06:22.361Z,96726.19
2023-05-19T05:08:49.356Z,96718.97
2023-05-19T05:11:16.661Z,96723.66
2023-05-19T05:13:43.412Z,96729.75
2023-05-19T05:16:10.682Z,96730.28
2023-05-19T05:18:38.666Z,96727.97
2023-05-19T05:21:06.783Z,96722.34
2023-05-19T05:23:33.459Z,96727.53
2023-05-19T05:26:03.111Z,96725.06
2023-05-19T05:28:29.706Z,96718.22
2023-05-19T05:30:57.288Z,96720.00
2023-05-19T05:33:24.730Z,96721.34
2023-05-19T05:35:51.355Z,96715.66
2023-05-19T05:38:17.774Z,96723.66
2023-05-19T05:40:44.148Z,96716.50
2023-05-19T05:43:10.522Z,96720.53
2023-05-19T05:45:36.965Z,96721.84
2023-05-19T05:48:03.831Z,96725.81
2023-05-19T05:50:30.620Z,96720.97
2023-05-19T05:52:57.838Z,96725.38
2023-05-19T05:55:24.590Z,96728.38
2023-05-19T05:57:51.683Z,96725.38
2023-05-19T06:00:18.777Z,96728.81
2023-05-19T06:02:49.460Z,96719.25
2023-05-19T06:05:16.526Z,96717.28
2023-05-19T06:07:43.725Z,96718.47
2023-05-19T06:10:10.348Z,96728.78
2023-05-19T06:12:40.450Z,96726.78
2023-05-19T06:15:08.004Z,96720.88
2023-05-19T06:17:36.061Z,96722.72
2023-05-19T06:20:04.876Z,96731.44
2023-05-19T06:22:31.292Z,96724.69
2023-05-19T06:24:57.739Z,96731.97
2023-05-19T06:27:24.373Z,96724.25
2023-05-19T06:29:50.957Z,96725.56
2023-05-19T06:32:17.389Z,96726.19
2023-05-19T06:34:44.029Z,96723.84
2023-05-19T06:37:10.730Z,96724.97
2023-05-19T06:39:38.166Z,96718.72
2023-05-19T06:42:05.106Z,96729.34
2023-05-19T06:44:31.485Z,96718.72
2023-05-19T06:46:57.934Z,96723.06
2023-05-19T06:49:24.469Z,96736.72
2023-05-19T06:51:50.988Z,96727.03
2023-05-19T06:54:17.543Z,96733.50
2023-05-19T06:56:43.976Z,96731.00
2023-05-19T06:59:10.766Z,96732.38
2023-05-19T07:01:37.788Z,96731.22
2023-05-19T07:04:04.435Z,96737.25
2023-05-19T07:06:31.241Z,96741.84
2023-05-19T07:08:57.668Z,96734.34
2023-05-19T07:11:24.546Z,96739.44
2023-05-19T07:13:50.967Z,96739.16
2023-05-19T07:16:17.406Z,96737.22
2023-05-19T07:18:43.996Z,96747.66
2023-05-19T07:21:10.785Z,96747.22
2023-05-19T07:23:37.156Z,96734.91
2023-05-19T07:26:03.810Z,96736.53
2023-05-19T07:28:30.180Z,96734.28
2023-05-19T07:30:56.543Z,96730.22
2023-05-19T07:33:23.033Z,96733.38
2023-05-19T07:35:49.427Z,96731.81
2023-05-19T07:38:15.826Z,96730.00
2023-05-19T07:40:42.223Z,96733.56
2023-05-19T07:43:08.716Z,96734.88
2023-05-19T07:45:35.204Z,96735.22
2023-05-19T07:48:01.767Z,96733.91
2023-05-19T07:50:28.242Z,96733.09
2023-05-19T07:52:54.708Z,96728.63
2023-05-19T07:55:23.073Z,96736.78
2023-05-19T07:57:50.805Z,96742.50
2023-05-19T08:00:17.892Z,96736.78
2023-05-19T08:02:44.813Z,96719.00
2023-05-19T08:05:11.533Z,96728.91
2023-05-19T08:07:37.973Z,96735.47
2023-05-19T08:10:04.761Z,96722.53
2023-05-19T08:12:31.301Z,96725.25
2023-05-19T08:15:00.422Z,96720.88
2023-05-19T08:17:27.674Z,96718.63
2023-05-19T08:19:54.102Z,96720.81
2023-05-19T08:22:20.661Z,96719.66
2023-05-19T08:24:49.567Z,96705.91
2023-05-19T08:27:17.072Z,96715.28
2023-05-19T08:29:43.507Z,96699.22
2023-05-19T08:32:12.949Z,96700.47
2023-05-19T08:34:39.676Z,96709.78
2023-05-19T08:37:06.876Z,96715.53
2023-05-19T08:39:34.758Z,96709.78
2023-05-19T08:42:01.539Z,96701.53
2023-05-19T08:44:28.365Z,96702.59
2023-05-19T08:46:56.234Z,96703.03
2023-05-19T08:49:26.531Z,96694.31
2023-05-19T08:52:06.271Z,96702.13
2023-05-19T08:54:54.470Z,96699.28
2023-05-19T08:57:24.773Z,96699.72
2023-05-19T08:59:52.203Z,96701.00
2023-05-19T09:02:19.655Z,96694.59
2023-05-19T09:04:47.926Z,96689.34
2023-05-19T09:07:15.273Z,96696.63
2023-05-19T09:09:43.682Z,96700.16
2023-05-19T09:12:13.792Z,96692.56
2023-05-19T09:14:40.533Z,96684.81
2023-05-19T09:17:07.192Z,96688.72
2023-05-19T09:19:33.817Z,96701.63
2023-05-19T09:22:01.375Z,96698.53
2023-05-19T09:24:28.253Z,96696.63
2023-05-19T09:27:00.087Z,96701.59
2023-05-19T09:29:27.146Z,96695.75
2023-05-19T09:31:55.898Z,96696.41
2023-05-19T09:34:24.642Z,96692.69
2023-05-19T09:36:53.172Z,96690.59
2023-05-19T09:39:21.850Z,96691.41
2023-05-19T09:41:54.976Z,96694.88
2023-05-19T09:44:29.239Z,96693.69
2023-05-19T09:46:56.200Z,96694.41
2023-05-19T09:49:24.501Z,96699.56
2023-05-19T09:51:58.692Z,96691.88
2023-05-19T09:54:28.300Z,96694.50
2023-05-19T09:57:03.435Z,96696.19
2023-05-19T09:59:33.341Z,96693.13
2023-05-19T10:02:01.648Z,96690.75
2023-05-19T10:04:29.468Z,96687.63
2023-05-19T10:06:59.329Z,96690.66
2023-05-19T10:09:27.319Z,96683.41
2023-05-19T10:11:55.250Z,96687.41
2023-05-19T10:14:26.672Z,96680.63
2023-05-19T10:16:55.446Z,96674.06
2023-05-19T10:19:23.736Z,96677.66
2023-05-19T10:21:51.004Z,96678.50
2023-05-19T10:24:18.086Z,96674.00
2023-05-19T10:26:48.161Z,96678.69
2023-05-19T10:29:19.902Z,96676.41
2023-05-19T10:31:47.670Z,96674.91
2023-05-19T10:34:32.500Z,96674.38
2023-05-19T10:37:22.162Z,96675.25
2023-05-19T10:39:51.219Z,96678.41
2023-05-19T10:42:34.749Z,96679.34
2023-05-19T10:45:16.181Z,96672.13
2023-05-19T10:47:43.515Z,96671.50
2023-05-19T10:50:11.100Z,96673.16
2023-05-19T10:52:38.532Z,96660.59
2023-05-19T10:55:08.604Z,96655.28
2023-05-19T10:57:35.457Z,96659.13
2023-05-19T11:00:28.193Z,96661.69
2023-05-19T11:02:57.805Z,96660.72
2023-05-19T11:05:29.427Z,96659.44
2023-05-19T11:08:10.669Z,96662.25
2023-05-19T11:10:37.072Z,96663.13
2023-05-19T11:13:06.613Z,96659.16
2023-05-19T11:15:39.099Z,96654.84
2023-05-19T11:18:05.667Z,96645.94
2023-05-19T11:20:34.668Z,96647.59
2023-05-19T11:23:09.290Z,96643.94
2023-05-19T11:25:46.921Z,96640.31
2023-05-19T11:28:19.925Z,96636.81
2023-05-19T11:30:50.773Z,96633.00
2023-05-19T11:33:20.861Z,96632.00
2023-05-19T11:35:50.273Z,96624.72
2023-05-19T11:38:20.465Z,96628.53
2023-05-19T11:40:49.638Z,96625.84
2023-05-19T11:43:18.624Z,96620.69
2023-05-19T11:45:45.610Z,96623.66
2023-05-19T11:48:12.815Z,96625.47
2023-05-19T11:50:43.792Z,96625.94
2023-05-19T11:53:13.967Z,96624.91
2023-05-19T11:55:46.674Z,96613.47
2023-05-19T11:58:13.835Z,96612.47
2023-05-19T12:00:42.705Z,96624.50
2023-05-19T12:03:09.923Z,96617.44
2023-05-19T12:05:41.802Z,96622.50
2023-05-19T12:08:09.792Z,96616.88
2023-05-19T12:10:36.817Z,96614.22
2023-05-19T12:13:03.589Z,96614.03
2023-05-19T12:15:31.849Z,96616.59
2023-05-19T12:18:01.760Z,96624.94
2023-05-19T12:20:31.947Z,96613.47
2023-05-19T12:23:00.049Z,96615.63
2023-05-19T12:25:26.525Z,96618.94
2023-05-19T12:27:58.138Z,96613.09
2023-05-19T12:30:26.694Z,96614.19
2023-05-19T12:32:54.152Z,96610.50
2023-05-19T12:35:20.764Z,96607.22
2023-05-19T12:37:49.063Z,96609.88
2023-05-19T12:40:16.787Z,96611.47
2023-05-19T12:42:46.672Z,96611.34
2023-05-19T12:45:13.030Z,96605.91
2023-05-19T12:47:39.490Z,96601.59
2023-05-19T12:50:10.766Z,96602.53
2023-05-19T12:52:45.700Z,96597.25
2023-05-19T12:55:12.435Z,96599.56
2023-05-19T12:57:41.017Z,96599.22
2023-05-19T13:00:17.440Z,96589.00
2023-05-19T13:03:05.020Z,96599.34
2023-05-19T13:05:39.680Z,96594.66
2023-05-19T13:08:10.024Z,96597.72
2023-05-19T13:10:38.220Z,96592.97
2023-05-19T13:13:05.744Z,96592.53
2023-05-19T13:15:35.624Z,96585.97
2023-05-19T13:18:04.084Z,96589.78
2023-05-19T13:20:30.738Z,96586.28
2023-05-19T13:22:57.471Z,96590.47
2023-05-19T13:25:24.209Z,96587.44
2023-05-19T13:27:50.973Z,96583.16
2023-05-19T13:30:18.586Z,96586.16
2023-05-19T13:32:45.963Z,96581.47
2023-05-19T13:35:13.959Z,96578.25
2023-05-19T13:37:42.152Z,96576.09
2023-05-19T13:40:09.755Z,96580.38
2023-05-19T13:42:36.337Z,96580.09
2023-05-19T13:45:03.584Z,96573.03
2023-05-19T13:47:30.292Z,96582.63
2023-05-19T13:49:57.433Z,96578.06
2023-05-19T13:52:23.872Z,96584.72
2023-05-19T13:54:50.381Z,96581.19
2023-05-19T13:57:16.980Z,96579.84
2023-05-19T13:59:57.605Z,96584.97
2023-05-19T14:02:27.890Z,96584.03
2023-05-19T14:04:54.373Z,96585.72
2023-05-19T14:07:21.145Z,96581.91
2023-05-19T14:09:47.538Z,96586.22
2023-05-19T14:12:13.938Z,96588.66
2023-05-19T14:14:40.416Z,96584.75
2023-05-19T14:17:06.827Z,96586.91
2023-05-19T14:19:33.262Z,96590.34
2023-05-19T14:22:00.125Z,96591.31
2023-05-19T14:24:26.533Z,96596.31
2023-05-19T14:26:53.691Z,96588.72
2023-05-19T14:29:20.096Z,96591.47
2023-05-19T14:31:46.539Z,96585.91
2023-05-19T14:34:13.029Z,96598.63
2023-05-19T14:36:39.416Z,96589.03
2023-05-19T14:39:05.867Z,96589.38
2023-05-19T14:41:32.268Z,96583.88
2023-05-19T14:43:58.652Z,96583.75
2023-05-19T14:46:25.182Z,96586.44
2023-05-19T14:48:51.554Z,96586.59
2023-05-19T14:51:17.922Z,96586.44
2023-05-19T14:53:44.292Z,96588.81
2023-05-19T14:56:10.701Z,96580.63
2023-05-19T14:58:37.153Z,96586.03
2023-05-19T15:01:03.866Z,96593.78
2023-05-19T15:03:30.443Z,96594.88
2023-05-19T15:05:56.861Z,96591.38
2023-05-19T15:08:23.514Z,96586.22
2023-05-19T15:10:50.547Z,96584.94
2023-05-19T15:13:18.720Z,96586.22
2023-05-19T15:15:45.868Z,96579.69
2023-05-19T15:18:13.068Z,96579.44
2023-05-19T15:20:39.506Z,96578.53
2023-05-19T15:23:05.998Z,96587.22
2023-05-19T15:25:32.377Z,96592.53
2023-05-19T15:27:58.761Z,96590.16
2023-05-19T15:30:25.204Z,96587.88
2023-05-19T15:32:51.682Z,96591.75
2023-05-19T15:35:18.102Z,96592.28
2023-05-19T15:37:44.488Z,96586.66
2023-05-19T15:40:11.476Z,96584.97
2023-05-19T15:42:37.862Z,96593.19
2023-05-19T15:45:05.690Z,96589.84
2023-05-19T15:47:32.089Z,96577.56
2023-05-19T15:49:58.615Z,96584.50
2023-05-19T15:52:25.363Z,96585.34
2023-05-19T15:54:51.930Z,96586.22
2023-05-19T15:57:18.319Z,96579.97
2023-05-19T15:59:44.771Z,96577.31
2023-05-19T16:02:11.413Z,96575.69
2023-05-19T16:04:37.925Z,96578.72
2023-05-19T16:07:04.429Z,96571.41
2023-05-19T16:09:30.839Z,96572.06
2023-05-19T16:11:57.392Z,96563.81
2023-05-19T16:14:24.396Z,96570.13
2023-05-19T16:16:51.062Z,96558.41
2023-05-19T16:19:17.804Z,96565.84
2023-05-19T16:21:44.200Z,96556.72
2023-05-19T16:24:10.764Z,96571.41
2023-05-19T16:26:37.144Z,96560.38
2023-05-19T16:29:03.591Z,96567.69
2023-05-19T16:31:30.249Z,96564.84
2023-05-19T16:33:56.758Z,96556.84
2023-05-19T16:36:23.146Z,96552.78
2023-05-19T16:38:49.563Z,96556.56
2023-05-19T16:41:15.991Z,96557.75
2023-05-19T16:43:42.425Z,96553.97
2023-05-19T16:46:10.023Z,96553.91
2023-05-19T16:48:36.537Z,96552.78
2023-05-19T16:51:03.030Z,96552.34
2023-05-19T16:53:29.442Z,96552.00
2023-05-19T16:55:55.803Z,96549.13
2023-05-19T16:58:22.237Z,96551.09
2023-05-19T17:00:51.915Z,96546.31
2023-05-19T17:03:18.889Z,96557.25
2023-05-19T17:05:45.674Z,96555.94
2023-05-19T17:08:12.661Z,96556.41
2023-05-19T17:10:39.259Z,96558.34
2023-05-19T17:13:05.790Z,96560.16
2023-05-19T17:15:33.850Z,96567.81
2023-05-19T17:18:00.321Z,96563.47
2023-05-19T17:20:26.824Z,96565.72
2023-05-19T17:22:53.209Z,96561.03
2023-05-19T17:25:19.604Z,96567.19
2023-05-19T17:27:46.210Z,96566.50
2023-05-19T17:30:13.190Z,96565.72
2023-05-19T17:32:39.859Z,96567.22
2023-05-19T17:35:07.062Z,96573.16
2023-05-19T17:37:33.496Z,96575.31
2023-05-19T17:39:59.932Z,96577.81
2023-05-19T17:42:26.471Z,96569.25
2023-05-19T17:44:52.837Z,96571.22
2023-05-19T17:47:19.240Z,96572.03
2023-05-19T17:49:46.141Z,96575.81
2023-05-19T17:52:12.810Z,96575.19
2023-05-19T17:54:39.405Z,96571.53
2023-05-19T17:57:10.751Z,96578.81
2023-05-19T17:59:37.371Z,96576.16
2023-05-19T18:02:04.332Z,96580.81
2023-05-19T18:04:31.257Z,96583.47
2023-05-19T18:06:59.188Z,96578.81
2023-05-19T18:09:28.732Z,96575.16
2023-05-19T18:11:55.529Z,96580.63
2023-05-19T18:14:21.968Z,96580.44
2023-05-19T18:16:49.954Z,96580.63
2023-05-19T18:19:16.700Z,96579.63
2023-05-19T18:21:43.098Z,96576.16
2023-05-19T18:24:11.244Z,96583.13
2023-05-19T18:26:41.588Z,96590.38
2023-05-19T18:29:11.454Z,96586.09
2023-05-19T18:31:38.196Z,96583.81
2023-05-19T18:34:04.716Z,96584.13
2023-05-19T18:36:31.470Z,96580.31
2023-05-19T18:38:59.201Z,96582.13
2023-05-19T18:41:25.797Z,96585.41
2023-05-19T18:43:52.166Z,96585.06
2023-05-19T18:46:18.702Z,96583.59
2023-05-19T18:48:45.297Z,96585.06
2023-05-19T18:51:14.100Z,96580.44
2023-05-19T18:53:40.476Z,96574.53
2023-05-19T18:56:07.276Z,96575.69
2023-05-19T18:58:33.641Z,96583.81
2023-05-19T19:01:00.038Z,96577.03
2023-05-19T19:03:26.607Z,96581.44
2023-05-19T19:05:56.758Z,96585.56
2023-05-19T19:08:23.195Z,96587.72
2023-05-19T19:10:51.367Z,96589.72
2023-05-19T19:13:18.274Z,96587.91
2023-05-19T19:15:45.105Z,96587.06
2023-05-19T19:18:11.868Z,96593.00
2023-05-19T19:20:38.325Z,96591.41
2023-05-19T19:23:06.474Z,96595.03
2023-05-19T19:25:33.412Z,96591.06
2023-05-19T19:27:59.770Z,96595.34
2023-05-19T19:30:26.832Z,96600.31
2023-05-19T19:32:54.777Z,96594.00
2023-05-19T19:35:21.365Z,96595.16
2023-05-19T19:37:47.831Z,96599.78
2023-05-19T19:40:14.302Z,96594.97
2023-05-19T19:42:40.872Z,96598.28
2023-05-19T19:45:07.764Z,96598.28
2023-05-19T19:47:34.232Z,96593.34
2023-05-19T19:50:02.567Z,96596.34
2023-05-19T19:52:28.979Z,96589.22
2023-05-19T19:54:55.581Z,96588.56
2023-05-19T19:57:22.002Z,96589.06
2023-05-19T19:59:54.944Z,96592.34
2023-05-19T20:02:21.627Z,96596.66
2023-05-19T20:04:48.245Z,96598.00
2023-05-19T20:07:14.642Z,96595.84
2023-05-19T20:09:41.030Z,96589.06
2023-05-19T20:12:07.601Z,96593.66
2023-05-19T20:14:34.039Z,96587.41
2023-05-19T20:17:00.423Z,96585.28
2023-05-19T20:19:26.923Z,96577.34
2023-05-19T20:21:53.337Z,96576.16
2023-05-19T20:24:19.906Z,96567.91
2023-05-19T20:26:46.427Z,96568.22
2023-05-19T20:29:12.801Z,96562.94
2023-05-19T20:31:39.183Z,96563.63
2023-05-19T20:34:05.702Z,96559.28
2023-05-19T20:36:32.161Z,96557.31
2023-05-19T20:38:58.639Z,96552.69
2023-05-19T20:41:25.042Z,96538.50
2023-05-19T20:43:51.449Z,96543.28
2023-05-19T20:46:17.959Z,96538.81
2023-05-19T20:48:44.466Z,96551.03
2023-05-19T20:51:10.856Z,96542.81
2023-05-19T20:53:37.460Z,96546.59
2023-05-19T20:56:05.498Z,96540.31
2023-05-19T20:58:32.128Z,96533.53
2023-05-19T21:00:58.632Z,96530.22
2023-05-19T21:03:26.727Z,96524.94
2023-05-19T21:05:53.358Z,96530.91
2023-05-19T21:08:19.784Z,96537.63
2023-05-19T21:10:46.252Z,96546.81
2023-05-19T21:13:12.645Z,96539.38
2023-05-19T21:15:39.410Z,96541.41
2023-05-19T21:18:06.590Z,96539.44
2023-05-19T21:20:33.197Z,96548.69
2023-05-19T21:22:59.679Z,96545.75
2023-05-19T21:25:26.051Z,96547.41
2023-05-19T21:27:52.761Z,96542.44
2023-05-19T21:30:19.152Z,96543.13
2023-05-19T21:32:45.769Z,96542.13
2023-05-19T21:35:12.166Z,96528.75
2023-05-19T21:37:38.556Z,96532.69
2023-05-19T21:40:05.763Z,96512.72
2023-05-19T21:42:32.164Z,96518.66
2023-05-19T21:44:58.579Z,96525.94
2023-05-19T21:47:25.138Z,96522.97
2023-05-19T21:49:51.529Z,96521.00
2023-05-19T21:52:18.902Z,96515.88
2023-05-19T21:54:45.643Z,96518.69
2023-05-19T21:57:12.616Z,96518.16
2023-05-19T21:59:39.164Z,96509.25
2023-05-19T22:02:06.160Z,96509.09
2023-05-19T22:04:32.760Z,96507.94
2023-05-19T22:06:59.185Z,96516.03
2023-05-19T22:09:26.089Z,96501.16
2023-05-19T22:11:52.484Z,96511.22
2023-05-19T22:14:18.898Z,96507.78
2023-05-19T22:16:47.285Z,96502.00
2023-05-19T22:19:14.489Z,96510.38
2023-05-19T22:21:41.042Z,96507.44
2023-05-19T22:24:07.457Z,96506.78
2023-05-19T22:26:35.644Z,96501.00
2023-05-19T22:29:02.522Z,96499.53
2023-05-19T22:31:29.562Z,96493.91
2023-05-19T22:33:56.057Z,96491.59
2023-05-19T22:36:23.462Z,96486.31
2023-05-19T22:38:49.895Z,96488.63
2023-05-19T22:41:16.347Z,96495.56
2023-05-19T22:43:43.390Z,96480.22
2023-05-19T22:46:10.159Z,96490.94
2023-05-19T22:48:36.668Z,96482.84
2023-05-19T22:51:03.151Z,96477.38
2023-05-19T22:53:29.571Z,96480.22
2023-05-19T22:55:56.040Z,96470.44
2023-05-19T22:58:22.536Z,96472.78
2023-05-19T23:00:49.024Z,96469.13
2023-05-19T23:03:15.547Z,96473.09
2023-05-19T23:05:42.764Z,96468.63
2023-05-19T23:08:09.234Z,96468.00
2023-05-19T23:10:35.764Z,96462.22
2023-05-19T23:13:02.246Z,96459.91
2023-05-19T23:15:28.731Z,96456.56
2023-05-19T23:17:55.363Z,96451.28
2023-05-19T23:20:21.880Z,96444.53
2023-05-19T23:22:48.277Z,96449.34
2023-05-19T23:25:14.686Z,96443.22
2023-05-19T23:27:41.198Z,96440.94
2023-05-19T23:30:08.255Z,96446.34
2023-05-19T23:32:34.651Z,96438.94
2023-05-19T23:35:15.526Z,96438.44
2023-05-19T23:37:42.265Z,96439.09
2023-05-19T23:40:09.232Z,96442.38
2023-05-19T23:42:36.324Z,96443.38
2023-05-19T23:45:03.521Z,96440.56
2023-05-19T23:47:30.030Z,96441.91
2023-05-19T23:49:56.699Z,96427.22
2023-05-19T23:52:23.136Z,96431.81
2023-05-19T23:54:49.939Z,96433.81
2023-05-19T23:57:16.600Z,96438.44
2023-05-19T23:59:43.129Z,96437.78
